Romeo, Michigan
Current Conditions -  °F | °C
As of 4:55 PM on Wednesday 22 Oct 2014 (Local Time) from KMTC Reporting Station
Broken Clouds Broken Clouds  
Wind Chill: 53°   Ceiling: 3500
Heat Index: 53°   Visibility: 12mi
Dew Point: 41°   Wind: 12mph
Humidity: 63%   Direction: 350°N
Pressure: 30.26"   Gusts: NA
Location:  42.8°N, 83.01°W
Report Text: KMTC 222055Z 35010KT 12SM BKN035 12/05 A3026 RMK SLP258 T01190050 56005
Loading
Personal Weather Stations






























Interactive Weather Map
Tropical Storm Tracking
New forecast layout! Learn more

10-Day Weather Forecast

Advertisements
Track Severe Weather on mobile